sensor_id;sensor_type;location;lat;lon;timestamp;temperature;humidity
43581;DHT22;29175;51.030;4.606;2023-06-26T00:00:35;24.00;95.30
43581;DHT22;29175;51.030;4.606;2023-06-26T00:03:02;24.20;95.10
43581;DHT22;29175;51.030;4.606;2023-06-26T00:05:28;24.40;94.70
43581;DHT22;29175;51.030;4.606;2023-06-26T00:07:55;24.30;94.70
43581;DHT22;29175;51.030;4.606;2023-06-26T00:10:23;24.30;94.50
43581;DHT22;29175;51.030;4.606;2023-06-26T00:12:49;24.00;94.80
43581;DHT22;29175;51.030;4.606;2023-06-26T00:15:14;24.00;94.80
43581;DHT22;29175;51.030;4.606;2023-06-26T00:17:40;24.00;94.90
43581;DHT22;29175;51.030;4.606;2023-06-26T00:20:06;24.00;94.70
43581;DHT22;29175;51.030;4.606;2023-06-26T00:22:32;24.10;94.60
43581;DHT22;29175;51.030;4.606;2023-06-26T00:24:58;24.10;95.00
43581;DHT22;29175;51.030;4.606;2023-06-26T00:27:23;24.10;94.70
43581;DHT22;29175;51.030;4.606;2023-06-26T00:29:50;24.00;94.60
43581;DHT22;29175;51.030;4.606;2023-06-26T00:32:18;23.80;95.00
43581;DHT22;29175;51.030;4.606;2023-06-26T00:34:44;23.60;95.40
43581;DHT22;29175;51.030;4.606;2023-06-26T00:37:09;23.60;95.50
43581;DHT22;29175;51.030;4.606;2023-06-26T00:39:35;23.60;95.60
43581;DHT22;29175;51.030;4.606;2023-06-26T00:42:01;23.60;95.50
43581;DHT22;29175;51.030;4.606;2023-06-26T00:44:27;23.60;95.40
43581;DHT22;29175;51.030;4.606;2023-06-26T00:46:53;23.70;95.30
43581;DHT22;29175;51.030;4.606;2023-06-26T00:49:19;23.60;95.30
43581;DHT22;29175;51.030;4.606;2023-06-26T00:51:45;23.60;95.60
43581;DHT22;29175;51.030;4.606;2023-06-26T00:54:11;23.50;95.60
43581;DHT22;29175;51.030;4.606;2023-06-26T00:56:37;23.30;95.80
43581;DHT22;29175;51.030;4.606;2023-06-26T00:59:02;23.30;95.80
43581;DHT22;29175;51.030;4.606;2023-06-26T01:01:28;23.10;95.10
43581;DHT22;29175;51.030;4.606;2023-06-26T01:03:54;23.00;95.10
43581;DHT22;29175;51.030;4.606;2023-06-26T01:06:22;22.90;95.20
43581;DHT22;29175;51.030;4.606;2023-06-26T01:08:48;22.90;94.90
43581;DHT22;29175;51.030;4.606;2023-06-26T01:11:15;22.70;95.10
43581;DHT22;29175;51.030;4.606;2023-06-26T01:13:42;22.90;94.60
43581;DHT22;29175;51.030;4.606;2023-06-26T01:16:10;22.80;94.80
43581;DHT22;29175;51.030;4.606;2023-06-26T01:18:38;22.90;94.80
43581;DHT22;29175;51.030;4.606;2023-06-26T01:21:08;22.90;94.70
43581;DHT22;29175;51.030;4.606;2023-06-26T01:26:27;22.80;95.20
43581;DHT22;29175;51.030;4.606;2023-06-26T01:28:56;22.90;94.80
43581;DHT22;29175;51.030;4.606;2023-06-26T01:31:22;22.90;94.80
43581;DHT22;29175;51.030;4.606;2023-06-26T01:33:49;22.80;95.10
43581;DHT22;29175;51.030;4.606;2023-06-26T01:36:16;22.50;95.50
43581;DHT22;29175;51.030;4.606;2023-06-26T01:38:42;22.40;95.90
43581;DHT22;29175;51.030;4.606;2023-06-26T01:41:08;22.40;96.20
43581;DHT22;29175;51.030;4.606;2023-06-26T01:52:07;22.40;96.20
43581;DHT22;29175;51.030;4.606;2023-06-26T01:54:39;22.40;96.20
43581;DHT22;29175;51.030;4.606;2023-06-26T01:57:09;22.40;96.40
43581;DHT22;29175;51.030;4.606;2023-06-26T01:59:35;22.40;96.30
43581;DHT22;29175;51.030;4.606;2023-06-26T02:02:02;22.30;96.50
43581;DHT22;29175;51.030;4.606;2023-06-26T02:04:32;22.20;96.60
43581;DHT22;29175;51.030;4.606;2023-06-26T02:06:57;22.30;96.50
43581;DHT22;29175;51.030;4.606;2023-06-26T02:09:23;22.30;96.70
43581;DHT22;29175;51.030;4.606;2023-06-26T02:11:48;22.30;96.50
43581;DHT22;29175;51.030;4.606;2023-06-26T02:14:14;22.40;96.60
43581;DHT22;29175;51.030;4.606;2023-06-26T02:16:40;22.30;96.80
43581;DHT22;29175;51.030;4.606;2023-06-26T02:19:06;22.20;96.80
43581;DHT22;29175;51.030;4.606;2023-06-26T02:21:31;22.30;96.70
43581;DHT22;29175;51.030;4.606;2023-06-26T02:23:57;22.30;96.60
43581;DHT22;29175;51.030;4.606;2023-06-26T02:26:23;22.30;96.60
43581;DHT22;29175;51.030;4.606;2023-06-26T02:28:48;22.20;96.80
43581;DHT22;29175;51.030;4.606;2023-06-26T02:31:14;22.20;97.00
43581;DHT22;29175;51.030;4.606;2023-06-26T02:33:41;22.00;97.10
43581;DHT22;29175;51.030;4.606;2023-06-26T02:36:07;22.00;97.40
43581;DHT22;29175;51.030;4.606;2023-06-26T02:38:33;21.80;97.70
43581;DHT22;29175;51.030;4.606;2023-06-26T02:40:59;21.60;98.10
43581;DHT22;29175;51.030;4.606;2023-06-26T02:43:24;21.50;98.40
43581;DHT22;29175;51.030;4.606;2023-06-26T02:45:50;21.60;98.40
43581;DHT22;29175;51.030;4.606;2023-06-26T02:48:16;21.60;98.60
43581;DHT22;29175;51.030;4.606;2023-06-26T02:50:41;21.40;99.00
43581;DHT22;29175;51.030;4.606;2023-06-26T02:53:07;21.30;99.30
43581;DHT22;29175;51.030;4.606;2023-06-26T02:55:34;21.30;99.60
43581;DHT22;29175;51.030;4.606;2023-06-26T02:58:00;21.40;99.30
43581;DHT22;29175;51.030;4.606;2023-06-26T03:00:25;21.60;99.00
43581;DHT22;29175;51.030;4.606;2023-06-26T03:02:51;21.70;99.20
43581;DHT22;29175;51.030;4.606;2023-06-26T03:05:17;21.60;99.00
43581;DHT22;29175;51.030;4.606;2023-06-26T03:07:43;21.50;99.50
43581;DHT22;29175;51.030;4.606;2023-06-26T03:10:08;21.50;99.60
43581;DHT22;29175;51.030;4.606;2023-06-26T03:12:34;21.60;99.40
43581;DHT22;29175;51.030;4.606;2023-06-26T03:15:00;21.50;99.40
43581;DHT22;29175;51.030;4.606;2023-06-26T03:17:25;21.40;99.70
43581;DHT22;29175;51.030;4.606;2023-06-26T03:19:51;21.30;99.90
43581;DHT22;29175;51.030;4.606;2023-06-26T03:22:17;21.30;99.90
43581;DHT22;29175;51.030;4.606;2023-06-26T03:24:44;21.20;99.90
43581;DHT22;29175;51.030;4.606;2023-06-26T03:27:11;21.20;99.90
43581;DHT22;29175;51.030;4.606;2023-06-26T03:29:37;21.10;99.90
43581;DHT22;29175;51.030;4.606;2023-06-26T03:32:03;21.20;99.90
43581;DHT22;29175;51.030;4.606;2023-06-26T03:34:31;21.10;99.90
43581;DHT22;29175;51.030;4.606;2023-06-26T03:36:57;21.10;99.90
43581;DHT22;29175;51.030;4.606;2023-06-26T03:39:23;20.90;99.90
43581;DHT22;29175;51.030;4.606;2023-06-26T03:41:48;20.90;99.90
43581;DHT22;29175;51.030;4.606;2023-06-26T03:44:14;20.90;99.90
43581;DHT22;29175;51.030;4.606;2023-06-26T03:46:40;20.90;99.90
43581;DHT22;29175;51.030;4.606;2023-06-26T03:49:06;20.80;99.90
43581;DHT22;29175;51.030;4.606;2023-06-26T03:51:32;20.40;99.90
43581;DHT22;29175;51.030;4.606;2023-06-26T03:53:58;20.60;99.90
43581;DHT22;29175;51.030;4.606;2023-06-26T03:56:24;20.50;99.90
43581;DHT22;29175;51.030;4.606;2023-06-26T03:58:50;20.30;99.90
43581;DHT22;29175;51.030;4.606;2023-06-26T04:01:15;20.20;99.90
43581;DHT22;29175;51.030;4.606;2023-06-26T04:03:41;20.50;99.90
43581;DHT22;29175;51.030;4.606;2023-06-26T04:06:07;20.60;99.90
43581;DHT22;29175;51.030;4.606;2023-06-26T04:08:32;20.70;99.90
43581;DHT22;29175;51.030;4.606;2023-06-26T04:10:58;20.80;99.90
43581;DHT22;29175;51.030;4.606;2023-06-26T04:13:24;20.60;99.90
43581;DHT22;29175;51.030;4.606;2023-06-26T04:15:50;20.60;99.90
43581;DHT22;29175;51.030;4.606;2023-06-26T04:18:15;20.60;99.90
43581;DHT22;29175;51.030;4.606;2023-06-26T04:23:33;20.80;99.90
43581;DHT22;29175;51.030;4.606;2023-06-26T04:25:59;20.70;99.90
43581;DHT22;29175;51.030;4.606;2023-06-26T04:28:25;20.80;99.90
43581;DHT22;29175;51.030;4.606;2023-06-26T04:30:51;20.80;99.90
43581;DHT22;29175;51.030;4.606;2023-06-26T04:33:16;20.90;99.90
43581;DHT22;29175;51.030;4.606;2023-06-26T04:35:42;20.90;99.90
43581;DHT22;29175;51.030;4.606;2023-06-26T04:38:10;21.00;99.90
43581;DHT22;29175;51.030;4.606;2023-06-26T04:40:36;21.10;99.90
43581;DHT22;29175;51.030;4.606;2023-06-26T04:43:01;21.20;99.90
43581;DHT22;29175;51.030;4.606;2023-06-26T04:45:27;21.10;99.90
43581;DHT22;29175;51.030;4.606;2023-06-26T04:47:52;21.20;99.90
43581;DHT22;29175;51.030;4.606;2023-06-26T04:50:18;21.30;99.90
43581;DHT22;29175;51.030;4.606;2023-06-26T04:52:44;21.40;99.90
43581;DHT22;29175;51.030;4.606;2023-06-26T04:55:10;21.30;99.90
43581;DHT22;29175;51.030;4.606;2023-06-26T04:57:36;21.40;99.90
43581;DHT22;29175;51.030;4.606;2023-06-26T05:00:02;21.50;99.90
43581;DHT22;29175;51.030;4.606;2023-06-26T05:02:30;21.30;99.90
43581;DHT22;29175;51.030;4.606;2023-06-26T05:04:55;21.40;99.90
43581;DHT22;29175;51.030;4.606;2023-06-26T05:07:21;21.40;99.90
43581;DHT22;29175;51.030;4.606;2023-06-26T05:09:46;22.00;99.90
43581;DHT22;29175;51.030;4.606;2023-06-26T05:12:12;22.10;99.90
43581;DHT22;29175;51.030;4.606;2023-06-26T05:14:38;21.70;99.90
43581;DHT22;29175;51.030;4.606;2023-06-26T05:17:04;21.40;99.90
43581;DHT22;29175;51.030;4.606;2023-06-26T05:19:29;21.70;99.90
43581;DHT22;29175;51.030;4.606;2023-06-26T05:21:55;21.80;99.90
43581;DHT22;29175;51.030;4.606;2023-06-26T05:24:21;21.70;99.90
43581;DHT22;29175;51.030;4.606;2023-06-26T05:26:48;21.60;99.90
43581;DHT22;29175;51.030;4.606;2023-06-26T05:29:14;21.40;99.90
43581;DHT22;29175;51.030;4.606;2023-06-26T05:31:41;21.30;99.90
43581;DHT22;29175;51.030;4.606;2023-06-26T05:34:07;21.10;99.90
43581;DHT22;29175;51.030;4.606;2023-06-26T05:36:35;20.90;99.90
43581;DHT22;29175;51.030;4.606;2023-06-26T05:39:01;21.00;99.90
43581;DHT22;29175;51.030;4.606;2023-06-26T05:41:28;21.20;99.90
43581;DHT22;29175;51.030;4.606;2023-06-26T05:43:53;21.20;99.90
43581;DHT22;29175;51.030;4.606;2023-06-26T05:46:20;20.90;99.90
43581;DHT22;29175;51.030;4.606;2023-06-26T05:48:45;21.20;99.90
43581;DHT22;29175;51.030;4.606;2023-06-26T05:51:13;21.00;99.90
43581;DHT22;29175;51.030;4.606;2023-06-26T05:53:38;21.20;99.90
43581;DHT22;29175;51.030;4.606;2023-06-26T05:56:04;21.20;99.90
43581;DHT22;29175;51.030;4.606;2023-06-26T05:58:30;21.20;99.90
43581;DHT22;29175;51.030;4.606;2023-06-26T06:00:56;21.10;99.90
43581;DHT22;29175;51.030;4.606;2023-06-26T06:03:22;21.20;99.90
43581;DHT22;29175;51.030;4.606;2023-06-26T06:05:48;20.80;99.90
43581;DHT22;29175;51.030;4.606;2023-06-26T06:08:13;21.20;99.90
43581;DHT22;29175;51.030;4.606;2023-06-26T06:10:39;21.30;99.90
43581;DHT22;29175;51.030;4.606;2023-06-26T06:13:05;21.00;99.90
43581;DHT22;29175;51.030;4.606;2023-06-26T06:15:31;21.50;99.70
43581;DHT22;29175;51.030;4.606;2023-06-26T06:17:56;21.70;99.20
43581;DHT22;29175;51.030;4.606;2023-06-26T06:20:24;22.00;98.10
43581;DHT22;29175;51.030;4.606;2023-06-26T06:22:49;22.00;98.50
43581;DHT22;29175;51.030;4.606;2023-06-26T06:25:15;22.30;98.30
43581;DHT22;29175;51.030;4.606;2023-06-26T06:27:41;22.50;98.10
43581;DHT22;29175;51.030;4.606;2023-06-26T06:30:08;22.90;97.20
43581;DHT22;29175;51.030;4.606;2023-06-26T06:32:33;22.10;97.90
43581;DHT22;29175;51.030;4.606;2023-06-26T06:34:59;22.40;98.20
43581;DHT22;29175;51.030;4.606;2023-06-26T06:37:25;23.60;96.00
43581;DHT22;29175;51.030;4.606;2023-06-26T06:39:51;24.80;94.50
43581;DHT22;29175;51.030;4.606;2023-06-26T06:42:17;26.80;91.50
43581;DHT22;29175;51.030;4.606;2023-06-26T06:44:43;26.90;90.00
43581;DHT22;29175;51.030;4.606;2023-06-26T06:47:09;27.40;89.20
43581;DHT22;29175;51.030;4.606;2023-06-26T06:49:35;27.90;87.20
43581;DHT22;29175;51.030;4.606;2023-06-26T06:52:01;28.30;86.50
43581;DHT22;29175;51.030;4.606;2023-06-26T06:54:26;29.40;84.10
43581;DHT22;29175;51.030;4.606;2023-06-26T06:56:53;29.30;85.20
43581;DHT22;29175;51.030;4.606;2023-06-26T06:59:19;29.80;82.40
43581;DHT22;29175;51.030;4.606;2023-06-26T07:01:44;28.60;84.40
43581;DHT22;29175;51.030;4.606;2023-06-26T07:04:10;28.80;84.80
43581;DHT22;29175;51.030;4.606;2023-06-26T07:06:36;29.30;83.00
43581;DHT22;29175;51.030;4.606;2023-06-26T07:09:01;29.50;83.40
43581;DHT22;29175;51.030;4.606;2023-06-26T07:11:29;30.50;81.20
43581;DHT22;29175;51.030;4.606;2023-06-26T07:13:55;31.00;79.20
43581;DHT22;29175;51.030;4.606;2023-06-26T07:16:22;31.70;77.90
43581;DHT22;29175;51.030;4.606;2023-06-26T07:18:47;31.90;77.30
43581;DHT22;29175;51.030;4.606;2023-06-26T07:21:14;31.70;77.10
43581;DHT22;29175;51.030;4.606;2023-06-26T07:23:40;31.70;76.70
43581;DHT22;29175;51.030;4.606;2023-06-26T07:26:06;31.00;77.90
43581;DHT22;29175;51.030;4.606;2023-06-26T07:28:31;31.20;78.00
43581;DHT22;29175;51.030;4.606;2023-06-26T07:30:57;32.00;76.50
43581;DHT22;29175;51.030;4.606;2023-06-26T07:33:22;32.00;75.50
43581;DHT22;29175;51.030;4.606;2023-06-26T07:35:48;31.90;75.80
43581;DHT22;29175;51.030;4.606;2023-06-26T07:38:14;32.30;75.30
43581;DHT22;29175;51.030;4.606;2023-06-26T07:40:39;32.80;73.20
43581;DHT22;29175;51.030;4.606;2023-06-26T07:43:05;32.40;73.90
43581;DHT22;29175;51.030;4.606;2023-06-26T07:45:31;33.50;72.40
43581;DHT22;29175;51.030;4.606;2023-06-26T07:47:56;34.10;70.60
43581;DHT22;29175;51.030;4.606;2023-06-26T07:50:22;34.40;70.10
43581;DHT22;29175;51.030;4.606;2023-06-26T07:52:49;34.10;70.70
43581;DHT22;29175;51.030;4.606;2023-06-26T07:55:15;33.60;71.30
43581;DHT22;29175;51.030;4.606;2023-06-26T07:57:40;33.80;70.70
43581;DHT22;29175;51.030;4.606;2023-06-26T08:00:07;34.00;70.00
43581;DHT22;29175;51.030;4.606;2023-06-26T08:02:33;33.20;71.20
43581;DHT22;29175;51.030;4.606;2023-06-26T08:04:59;32.70;71.80
43581;DHT22;29175;51.030;4.606;2023-06-26T08:07:25;33.40;72.10
43581;DHT22;29175;51.030;4.606;2023-06-26T08:09:50;33.20;72.00
43581;DHT22;29175;51.030;4.606;2023-06-26T08:12:16;33.50;70.30
43581;DHT22;29175;51.030;4.606;2023-06-26T08:14:41;34.10;71.00
43581;DHT22;29175;51.030;4.606;2023-06-26T08:17:07;34.40;69.60
43581;DHT22;29175;51.030;4.606;2023-06-26T08:19:33;35.00;68.70
43581;DHT22;29175;51.030;4.606;2023-06-26T08:21:58;35.40;67.10
43581;DHT22;29175;51.030;4.606;2023-06-26T08:24:24;35.60;66.50
43581;DHT22;29175;51.030;4.606;2023-06-26T08:26:50;35.90;66.10
43581;DHT22;29175;51.030;4.606;2023-06-26T08:29:15;35.80;64.00
43581;DHT22;29175;51.030;4.606;2023-06-26T08:31:42;35.30;65.50
43581;DHT22;29175;51.030;4.606;2023-06-26T08:34:07;33.60;67.30
43581;DHT22;29175;51.030;4.606;2023-06-26T08:36:34;33.40;67.40
43581;DHT22;29175;51.030;4.606;2023-06-26T08:39:00;34.10;67.40
43581;DHT22;29175;51.030;4.606;2023-06-26T08:41:26;34.60;65.90
43581;DHT22;29175;51.030;4.606;2023-06-26T08:43:52;34.90;63.50
43581;DHT22;29175;51.030;4.606;2023-06-26T08:46:18;36.00;64.40
43581;DHT22;29175;51.030;4.606;2023-06-26T08:48:49;34.90;64.60
43581;DHT22;29175;51.030;4.606;2023-06-26T08:51:17;33.40;68.20
43581;DHT22;29175;51.030;4.606;2023-06-26T08:53:59;32.90;68.40
43581;DHT22;29175;51.030;4.606;2023-06-26T08:56:32;31.80;69.90
43581;DHT22;29175;51.030;4.606;2023-06-26T08:59:00;31.20;71.80
43581;DHT22;29175;51.030;4.606;2023-06-26T09:01:27;30.70;74.20
43581;DHT22;29175;51.030;4.606;2023-06-26T09:03:53;30.20;75.70
43581;DHT22;29175;51.030;4.606;2023-06-26T09:06:19;30.10;74.50
43581;DHT22;29175;51.030;4.606;2023-06-26T09:08:45;29.80;75.50
43581;DHT22;29175;51.030;4.606;2023-06-26T09:11:11;29.20;77.30
43581;DHT22;29175;51.030;4.606;2023-06-26T09:13:37;30.00;74.20
43581;DHT22;29175;51.030;4.606;2023-06-26T09:16:07;31.40;70.00
43581;DHT22;29175;51.030;4.606;2023-06-26T09:18:33;33.10;69.30
43581;DHT22;29175;51.030;4.606;2023-06-26T09:20:59;33.60;68.60
43581;DHT22;29175;51.030;4.606;2023-06-26T09:23:25;34.20;68.40
43581;DHT22;29175;51.030;4.606;2023-06-26T09:25:51;34.90;64.20
43581;DHT22;29175;51.030;4.606;2023-06-26T09:28:17;35.90;61.40
43581;DHT22;29175;51.030;4.606;2023-06-26T09:30:44;36.20;62.20
43581;DHT22;29175;51.030;4.606;2023-06-26T09:33:19;35.50;63.60
43581;DHT22;29175;51.030;4.606;2023-06-26T09:35:46;35.90;61.90
43581;DHT22;29175;51.030;4.606;2023-06-26T09:38:12;36.30;59.40
43581;DHT22;29175;51.030;4.606;2023-06-26T09:40:39;34.80;63.00
43581;DHT22;29175;51.030;4.606;2023-06-26T09:43:05;34.10;63.10
43581;DHT22;29175;51.030;4.606;2023-06-26T09:45:35;35.30;61.80
43581;DHT22;29175;51.030;4.606;2023-06-26T09:48:04;35.90;61.30
43581;DHT22;29175;51.030;4.606;2023-06-26T09:50:34;35.80;61.20
43581;DHT22;29175;51.030;4.606;2023-06-26T09:53:13;34.80;63.70
43581;DHT22;29175;51.030;4.606;2023-06-26T09:55:39;35.50;61.40
43581;DHT22;29175;51.030;4.606;2023-06-26T09:58:08;35.00;61.90
43581;DHT22;29175;51.030;4.606;2023-06-26T10:00:34;35.70;61.10
43581;DHT22;29175;51.030;4.606;2023-06-26T10:03:00;36.40;61.50
43581;DHT22;29175;51.030;4.606;2023-06-26T10:05:26;37.10;58.30
43581;DHT22;29175;51.030;4.606;2023-06-26T10:07:54;37.40;57.10
43581;DHT22;29175;51.030;4.606;2023-06-26T10:10:23;37.30;56.90
43581;DHT22;29175;51.030;4.606;2023-06-26T10:12:54;35.80;57.90
43581;DHT22;29175;51.030;4.606;2023-06-26T10:15:21;33.70;62.40
43581;DHT22;29175;51.030;4.606;2023-06-26T10:17:49;33.00;63.80
43581;DHT22;29175;51.030;4.606;2023-06-26T10:20:15;31.60;65.90
43581;DHT22;29175;51.030;4.606;2023-06-26T10:22:45;32.70;66.50
43581;DHT22;29175;51.030;4.606;2023-06-26T10:25:16;33.30;64.50
43581;DHT22;29175;51.030;4.606;2023-06-26T10:27:47;33.90;62.60
43581;DHT22;29175;51.030;4.606;2023-06-26T10:30:19;32.60;63.70
43581;DHT22;29175;51.030;4.606;2023-06-26T10:32:48;31.70;67.00
43581;DHT22;29175;51.030;4.606;2023-06-26T10:35:14;32.90;65.30
43581;DHT22;29175;51.030;4.606;2023-06-26T10:37:45;32.70;66.90
43581;DHT22;29175;51.030;4.606;2023-06-26T10:40:12;31.50;67.50
43581;DHT22;29175;51.030;4.606;2023-06-26T10:42:39;31.40;66.90
43581;DHT22;29175;51.030;4.606;2023-06-26T10:45:16;33.00;64.90
43581;DHT22;29175;51.030;4.606;2023-06-26T10:47:46;33.50;62.80
43581;DHT22;29175;51.030;4.606;2023-06-26T10:50:29;32.50;66.40
43581;DHT22;29175;51.030;4.606;2023-06-26T10:55:39;30.40;68.40
43581;DHT22;29175;51.030;4.606;2023-06-26T10:58:26;31.30;66.50
43581;DHT22;29175;51.030;4.606;2023-06-26T11:03:41;30.10;66.70
43581;DHT22;29175;51.030;4.606;2023-06-26T11:06:15;30.70;64.70
43581;DHT22;29175;51.030;4.606;2023-06-26T11:08:48;31.20;64.50
43581;DHT22;29175;51.030;4.606;2023-06-26T11:11:14;30.40;64.50
43581;DHT22;29175;51.030;4.606;2023-06-26T11:13:41;30.30;65.50
43581;DHT22;29175;51.030;4.606;2023-06-26T11:16:07;30.30;65.60
43581;DHT22;29175;51.030;4.606;2023-06-26T11:18:33;30.80;65.30
43581;DHT22;29175;51.030;4.606;2023-06-26T11:21:09;31.90;65.70
43581;DHT22;29175;51.030;4.606;2023-06-26T11:23:37;31.70;62.40
43581;DHT22;29175;51.030;4.606;2023-06-26T11:26:37;31.30;65.20
43581;DHT22;29175;51.030;4.606;2023-06-26T11:29:03;30.00;66.40
43581;DHT22;29175;51.030;4.606;2023-06-26T11:31:36;29.50;67.10
43581;DHT22;29175;51.030;4.606;2023-06-26T11:34:07;28.70;69.00
43581;DHT22;29175;51.030;4.606;2023-06-26T11:36:34;28.10;71.40
43581;DHT22;29175;51.030;4.606;2023-06-26T11:39:04;28.00;71.80
43581;DHT22;29175;51.030;4.606;2023-06-26T11:41:32;28.50;70.00
43581;DHT22;29175;51.030;4.606;2023-06-26T11:44:05;29.80;70.50
43581;DHT22;29175;51.030;4.606;2023-06-26T11:46:32;29.60;67.40
43581;DHT22;29175;51.030;4.606;2023-06-26T11:48:59;29.70;68.50
43581;DHT22;29175;51.030;4.606;2023-06-26T11:51:27;31.20;65.80
43581;DHT22;29175;51.030;4.606;2023-06-26T11:53:53;32.20;64.80
43581;DHT22;29175;51.030;4.606;2023-06-26T11:56:19;33.60;63.50
43581;DHT22;29175;51.030;4.606;2023-06-26T11:59:14;32.40;61.40
43581;DHT22;29175;51.030;4.606;2023-06-26T12:01:43;32.40;61.20
43581;DHT22;29175;51.030;4.606;2023-06-26T12:04:15;32.40;61.70
43581;DHT22;29175;51.030;4.606;2023-06-26T12:06:42;32.10;62.60
43581;DHT22;29175;51.030;4.606;2023-06-26T12:09:09;32.10;61.40
43581;DHT22;29175;51.030;4.606;2023-06-26T12:11:38;31.90;60.90
43581;DHT22;29175;51.030;4.606;2023-06-26T12:14:06;31.80;60.50
43581;DHT22;29175;51.030;4.606;2023-06-26T12:16:33;31.00;64.00
43581;DHT22;29175;51.030;4.606;2023-06-26T12:19:03;30.70;64.50
43581;DHT22;29175;51.030;4.606;2023-06-26T12:24:07;28.40;68.40
43581;DHT22;29175;51.030;4.606;2023-06-26T12:26:33;28.60;69.30
43581;DHT22;29175;51.030;4.606;2023-06-26T12:29:06;28.30;70.70
43581;DHT22;29175;51.030;4.606;2023-06-26T12:31:33;28.40;69.90
43581;DHT22;29175;51.030;4.606;2023-06-26T12:34:00;28.10;67.20
43581;DHT22;29175;51.030;4.606;2023-06-26T12:36:26;28.00;70.30
43581;DHT22;29175;51.030;4.606;2023-06-26T12:38:53;27.80;69.50
43581;DHT22;29175;51.030;4.606;2023-06-26T12:41:19;27.20;69.90
43581;DHT22;29175;51.030;4.606;2023-06-26T12:43:46;26.70;71.20
43581;DHT22;29175;51.030;4.606;2023-06-26T12:46:12;26.90;73.00
43581;DHT22;29175;51.030;4.606;2023-06-26T12:48:38;27.00;71.80
43581;DHT22;29175;51.030;4.606;2023-06-26T12:51:12;26.70;71.90
43581;DHT22;29175;51.030;4.606;2023-06-26T12:53:39;26.90;73.30
43581;DHT22;29175;51.030;4.606;2023-06-26T12:56:08;27.40;72.10
43581;DHT22;29175;51.030;4.606;2023-06-26T12:58:35;26.90;73.30
43581;DHT22;29175;51.030;4.606;2023-06-26T13:01:05;26.90;72.60
43581;DHT22;29175;51.030;4.606;2023-06-26T13:03:42;27.20;71.60
43581;DHT22;29175;51.030;4.606;2023-06-26T13:06:08;27.60;70.50
43581;DHT22;29175;51.030;4.606;2023-06-26T13:08:34;27.20;69.60
43581;DHT22;29175;51.030;4.606;2023-06-26T13:11:00;26.90;71.40
43581;DHT22;29175;51.030;4.606;2023-06-26T13:13:26;26.80;71.70
43581;DHT22;29175;51.030;4.606;2023-06-26T13:15:51;27.20;70.50
43581;DHT22;29175;51.030;4.606;2023-06-26T13:18:17;27.60;69.30
43581;DHT22;29175;51.030;4.606;2023-06-26T13:20:43;26.90;71.20
43581;DHT22;29175;51.030;4.606;2023-06-26T13:23:08;26.90;70.60
43581;DHT22;29175;51.030;4.606;2023-06-26T13:25:34;26.90;70.40
43581;DHT22;29175;51.030;4.606;2023-06-26T13:28:00;27.00;69.70
43581;DHT22;29175;51.030;4.606;2023-06-26T13:30:25;26.80;70.60
43581;DHT22;29175;51.030;4.606;2023-06-26T13:32:51;26.70;70.20
43581;DHT22;29175;51.030;4.606;2023-06-26T13:35:17;26.70;70.70
43581;DHT22;29175;51.030;4.606;2023-06-26T13:37:43;26.70;70.00
43581;DHT22;29175;51.030;4.606;2023-06-26T13:40:09;26.90;72.60
43581;DHT22;29175;51.030;4.606;2023-06-26T13:42:35;26.70;71.80
43581;DHT22;29175;51.030;4.606;2023-06-26T13:45:02;26.50;70.40
43581;DHT22;29175;51.030;4.606;2023-06-26T13:47:28;26.80;73.10
43581;DHT22;29175;51.030;4.606;2023-06-26T13:49:55;27.50;72.50
43581;DHT22;29175;51.030;4.606;2023-06-26T13:52:21;27.90;70.40
43581;DHT22;29175;51.030;4.606;2023-06-26T13:54:46;27.70;69.50
43581;DHT22;29175;51.030;4.606;2023-06-26T13:57:12;27.30;69.70
43581;DHT22;29175;51.030;4.606;2023-06-26T13:59:39;27.40;69.00
43581;DHT22;29175;51.030;4.606;2023-06-26T14:02:05;27.50;70.70
43581;DHT22;29175;51.030;4.606;2023-06-26T14:04:32;27.90;69.10
43581;DHT22;29175;51.030;4.606;2023-06-26T14:06:58;27.70;71.30
43581;DHT22;29175;51.030;4.606;2023-06-26T14:09:23;27.30;70.90
43581;DHT22;29175;51.030;4.606;2023-06-26T14:11:49;27.70;70.30
43581;DHT22;29175;51.030;4.606;2023-06-26T14:14:15;27.70;69.60
43581;DHT22;29175;51.030;4.606;2023-06-26T14:16:40;27.30;70.20
43581;DHT22;29175;51.030;4.606;2023-06-26T14:19:06;26.60;70.60
43581;DHT22;29175;51.030;4.606;2023-06-26T14:21:32;26.60;72.40
43581;DHT22;29175;51.030;4.606;2023-06-26T14:23:59;27.20;70.10
43581;DHT22;29175;51.030;4.606;2023-06-26T14:26:24;27.20;70.20
43581;DHT22;29175;51.030;4.606;2023-06-26T14:28:50;26.80;71.40
43581;DHT22;29175;51.030;4.606;2023-06-26T14:31:17;27.30;71.70
43581;DHT22;29175;51.030;4.606;2023-06-26T14:33:42;27.30;72.00
43581;DHT22;29175;51.030;4.606;2023-06-26T14:36:08;27.60;71.40
43581;DHT22;29175;51.030;4.606;2023-06-26T14:38:35;27.70;71.80
43581;DHT22;29175;51.030;4.606;2023-06-26T14:41:01;27.80;72.00
43581;DHT22;29175;51.030;4.606;2023-06-26T14:43:27;27.90;70.10
43581;DHT22;29175;51.030;4.606;2023-06-26T14:45:53;27.60;70.30
43581;DHT22;29175;51.030;4.606;2023-06-26T14:48:18;27.40;70.00
43581;DHT22;29175;51.030;4.606;2023-06-26T14:50:44;27.20;72.90
43581;DHT22;29175;51.030;4.606;2023-06-26T14:53:10;27.20;74.40
43581;DHT22;29175;51.030;4.606;2023-06-26T14:55:36;26.90;74.80
43581;DHT22;29175;51.030;4.606;2023-06-26T14:58:01;26.70;76.00
43581;DHT22;29175;51.030;4.606;2023-06-26T15:00:27;26.70;75.90
43581;DHT22;29175;51.030;4.606;2023-06-26T15:02:53;26.20;77.10
43581;DHT22;29175;51.030;4.606;2023-06-26T15:05:21;26.20;78.20
43581;DHT22;29175;51.030;4.606;2023-06-26T15:07:47;26.10;78.60
43581;DHT22;29175;51.030;4.606;2023-06-26T15:10:13;25.90;77.00
43581;DHT22;29175;51.030;4.606;2023-06-26T15:12:39;25.90;76.90
43581;DHT22;29175;51.030;4.606;2023-06-26T15:15:05;26.10;78.50
43581;DHT22;29175;51.030;4.606;2023-06-26T15:17:33;25.90;78.10
43581;DHT22;29175;51.030;4.606;2023-06-26T15:19:59;25.90;80.50
43581;DHT22;29175;51.030;4.606;2023-06-26T15:22:26;25.90;78.10
43581;DHT22;29175;51.030;4.606;2023-06-26T15:24:52;25.60;78.80
43581;DHT22;29175;51.030;4.606;2023-06-26T15:27:18;25.70;78.90
43581;DHT22;29175;51.030;4.606;2023-06-26T15:29:43;25.70;80.00
43581;DHT22;29175;51.030;4.606;2023-06-26T15:32:09;25.60;77.70
43581;DHT22;29175;51.030;4.606;2023-06-26T15:34:35;25.40;79.30
43581;DHT22;29175;51.030;4.606;2023-06-26T15:37:01;25.50;79.50
43581;DHT22;29175;51.030;4.606;2023-06-26T15:39:26;25.60;80.90
43581;DHT22;29175;51.030;4.606;2023-06-26T15:41:52;25.30;79.90
43581;DHT22;29175;51.030;4.606;2023-06-26T15:44:18;25.40;79.70
43581;DHT22;29175;51.030;4.606;2023-06-26T15:46:44;25.20;81.80
43581;DHT22;29175;51.030;4.606;2023-06-26T15:49:09;25.40;81.00